createdAt,value
2024-02-03T00:00:51.878Z,1.80
2024-02-03T00:03:20.152Z,1.70
2024-02-03T00:05:48.314Z,1.40
2024-02-03T00:08:16.185Z,1.70
2024-02-03T00:10:44.105Z,1.30
2024-02-03T00:13:11.999Z,1.40
2024-02-03T00:15:39.971Z,1.70
2024-02-03T00:18:08.190Z,1.60
2024-02-03T00:20:37.591Z,1.70
2024-02-03T00:23:05.666Z,1.70
2024-02-03T00:25:33.625Z,1.33
2024-02-03T00:28:01.730Z,1.60
2024-02-03T00:30:29.579Z,1.60
2024-02-03T00:32:57.508Z,1.70
2024-02-03T00:35:25.424Z,1.87
2024-02-03T00:37:54.593Z,1.70
2024-02-03T00:40:22.543Z,1.40
2024-02-03T00:42:51.413Z,1.67
2024-02-03T00:45:19.627Z,1.80
2024-02-03T00:47:47.614Z,1.80
2024-02-03T00:50:16.476Z,1.53
2024-02-03T00:52:44.744Z,1.50
2024-02-03T00:55:14.653Z,1.70
2024-02-03T00:57:42.619Z,1.70
2024-02-03T01:00:11.431Z,1.50
2024-02-03T01:02:39.438Z,1.70
2024-02-03T01:05:07.536Z,1.60
2024-02-03T01:07:35.910Z,1.40
2024-02-03T01:10:03.900Z,1.80
2024-02-03T01:12:33.212Z,1.80
2024-02-03T01:15:01.146Z,1.70
2024-02-03T01:17:29.097Z,1.43
2024-02-03T01:19:57.180Z,1.70
2024-02-03T01:22:25.173Z,1.80
2024-02-03T01:24:53.194Z,1.30
2024-02-03T01:27:21.153Z,1.70
2024-02-03T01:29:50.408Z,1.53
2024-02-03T01:32:18.412Z,1.40
2024-02-03T01:34:46.343Z,1.80
2024-02-03T01:37:14.579Z,1.70
2024-02-03T01:39:42.965Z,1.70
2024-02-03T01:42:11.243Z,1.60
2024-02-03T01:44:39.214Z,1.83
2024-02-03T01:47:08.868Z,1.40
2024-02-03T01:49:37.232Z,1.40
2024-02-03T01:52:07.465Z,1.77
2024-02-03T01:54:36.561Z,1.60
2024-02-03T01:57:08.031Z,1.80
2024-02-03T01:59:36.083Z,1.90
2024-02-03T02:02:04.347Z,1.70
2024-02-03T02:04:34.317Z,1.70
2024-02-03T02:07:03.102Z,1.70
2024-02-03T02:09:31.393Z,1.70
2024-02-03T02:11:59.284Z,1.70
2024-02-03T02:14:27.760Z,1.60
2024-02-03T02:16:58.459Z,1.40
2024-02-03T02:19:26.870Z,1.70
2024-02-03T02:21:56.163Z,1.50
2024-02-03T02:24:24.074Z,1.50
2024-02-03T02:26:51.943Z,1.70
2024-02-03T02:29:20.285Z,1.70
2024-02-03T02:31:48.189Z,1.70
2024-02-03T02:34:16.292Z,1.70
2024-02-03T02:36:46.559Z,1.50
2024-02-03T02:39:18.177Z,1.80
2024-02-03T02:41:48.122Z,1.60
2024-02-03T02:44:16.073Z,1.80
2024-02-03T02:46:43.905Z,1.70
2024-02-03T02:49:11.965Z,1.80
2024-02-03T02:51:39.951Z,1.80
2024-02-03T02:54:07.979Z,1.80
2024-02-03T02:56:37.429Z,1.50
2024-02-03T02:59:05.290Z,1.40
2024-02-03T03:01:33.255Z,1.50
2024-02-03T03:04:01.255Z,1.50
2024-02-03T03:06:29.239Z,1.70
2024-02-03T03:08:57.184Z,1.70
2024-02-03T03:11:25.208Z,1.70
2024-02-03T03:13:54.437Z,1.50
2024-02-03T03:16:22.326Z,1.70
2024-02-03T03:18:50.303Z,1.70
2024-02-03T03:21:18.508Z,1.50
2024-02-03T03:23:46.454Z,1.70
2024-02-03T03:26:14.622Z,1.40
2024-02-03T03:28:42.521Z,1.70
2024-02-03T03:31:11.780Z,1.70
2024-02-03T03:33:39.832Z,1.80
2024-02-03T03:36:08.347Z,1.70
2024-02-03T03:38:43.296Z,1.60
2024-02-03T03:41:11.692Z,1.70
2024-02-03T03:43:40.047Z,1.40
2024-02-03T03:46:09.529Z,1.70
2024-02-03T03:48:38.919Z,1.40
2024-02-03T03:51:07.031Z,1.47
2024-02-03T03:53:35.805Z,1.70
2024-02-03T03:56:03.906Z,1.80
2024-02-03T03:58:31.766Z,1.90
2024-02-03T04:00:59.843Z,1.70
2024-02-03T04:03:27.837Z,1.70
2024-02-03T04:05:57.291Z,1.70
2024-02-03T04:08:25.153Z,1.50
2024-02-03T04:10:53.063Z,1.50
2024-02-03T04:13:20.290Z,1.40
2024-02-03T04:15:48.373Z,1.40
2024-02-03T04:18:19.702Z,1.50
2024-02-03T04:20:47.838Z,1.70
2024-02-03T04:23:17.360Z,1.73
2024-02-03T04:25:45.293Z,1.40
2024-02-03T04:28:13.177Z,1.80
2024-02-03T04:30:41.098Z,1.40
2024-02-03T04:33:09.285Z,1.80
2024-02-03T04:35:37.310Z,1.70
2024-02-03T04:38:05.440Z,1.80
2024-02-03T04:40:34.801Z,1.40
2024-02-03T04:43:03.886Z,1.80
2024-02-03T04:45:31.883Z,1.50
2024-02-03T04:47:59.808Z,1.70
2024-02-03T04:50:28.961Z,1.50
2024-02-03T04:52:56.883Z,1.60
2024-02-03T04:55:24.840Z,1.80
2024-02-03T04:57:54.238Z,1.80
2024-02-03T05:00:22.371Z,1.70
2024-02-03T05:02:50.277Z,1.80
2024-02-03T05:05:18.239Z,1.80
2024-02-03T05:07:47.457Z,1.40
2024-02-03T05:10:15.566Z,1.80
2024-02-03T05:12:43.892Z,1.43
2024-02-03T05:15:13.385Z,1.87
2024-02-03T05:17:41.326Z,1.70
2024-02-03T05:20:10.566Z,1.50
2024-02-03T05:22:38.687Z,1.70
2024-02-03T05:25:07.377Z,1.37
2024-02-03T05:27:35.492Z,1.70
2024-02-03T05:30:03.623Z,1.80
2024-02-03T05:32:33.246Z,1.80
2024-02-03T05:35:01.121Z,1.70
2024-02-03T05:37:29.120Z,1.70
2024-02-03T05:39:57.095Z,1.70
2024-02-03T05:42:30.526Z,1.50
2024-02-03T05:44:58.659Z,1.63
2024-02-03T05:47:27.242Z,1.50
2024-02-03T05:49:56.759Z,1.80
2024-02-03T05:52:24.807Z,1.80
2024-02-03T05:54:53.420Z,1.40
2024-02-03T05:57:21.400Z,1.70
2024-02-03T05:59:51.814Z,1.40
2024-02-03T06:02:20.508Z,1.77
2024-02-03T06:04:49.142Z,1.60
2024-02-03T06:07:18.995Z,1.80
2024-02-03T06:09:47.137Z,1.47
2024-02-03T06:12:15.190Z,1.50
2024-02-03T06:14:45.355Z,2.00
2024-02-03T06:17:13.622Z,1.40
2024-02-03T06:19:44.078Z,1.40
2024-02-03T06:22:12.703Z,1.80
2024-02-03T06:24:42.115Z,1.70
2024-02-03T06:27:10.117Z,1.80
2024-02-03T06:29:38.050Z,1.40
2024-02-03T06:32:06.531Z,1.70
2024-02-03T06:34:34.783Z,1.70
2024-02-03T06:37:02.940Z,1.43
2024-02-03T06:39:31.048Z,1.77
2024-02-03T06:42:00.545Z,1.50
2024-02-03T06:44:28.415Z,1.80
2024-02-03T06:46:56.388Z,1.70
2024-02-03T06:49:24.853Z,1.70
2024-02-03T06:51:52.892Z,1.67
2024-02-03T06:54:20.914Z,1.50
2024-02-03T06:56:51.379Z,1.83
2024-02-03T06:59:20.621Z,1.70
2024-02-03T07:01:48.709Z,1.70
2024-02-03T07:04:16.805Z,1.80
2024-02-03T07:06:44.830Z,1.80
2024-02-03T07:09:13.595Z,1.50
2024-02-03T07:11:52.859Z,1.40
2024-02-03T07:14:30.096Z,1.57
2024-02-03T07:16:58.132Z,1.80
2024-02-03T07:19:26.202Z,1.60
2024-02-03T07:21:54.221Z,1.50
2024-02-03T07:24:22.261Z,1.80
2024-02-03T07:26:50.316Z,1.40
2024-02-03T07:29:18.625Z,1.70
2024-02-03T07:31:48.135Z,1.70
2024-02-03T07:34:16.594Z,1.70
2024-02-03T07:36:44.704Z,1.70
2024-02-03T07:39:12.629Z,1.80
2024-02-03T07:41:40.676Z,1.20
2024-02-03T07:44:08.855Z,1.60
2024-02-03T07:46:36.726Z,1.40
2024-02-03T07:49:06.312Z,1.60
2024-02-03T07:51:34.433Z,1.60
2024-02-03T07:54:02.452Z,1.60
2024-02-03T07:56:30.458Z,1.70
2024-02-03T07:58:58.394Z,1.53
2024-02-03T08:01:27.617Z,1.60
2024-02-03T08:03:56.568Z,1.70
2024-02-03T08:06:26.067Z,1.70
2024-02-03T08:08:54.257Z,1.70
2024-02-03T08:11:22.290Z,1.70
2024-02-03T08:13:50.207Z,1.60
2024-02-03T08:16:18.235Z,1.50
2024-02-03T08:18:46.372Z,1.70
2024-02-03T08:21:14.588Z,1.30
2024-02-03T08:23:45.114Z,1.70
2024-02-03T08:26:13.503Z,1.60
2024-02-03T08:28:41.447Z,1.40
2024-02-03T08:31:09.362Z,1.60
2024-02-03T08:33:37.536Z,1.30
2024-02-03T08:36:08.884Z,1.30
2024-02-03T08:38:37.049Z,1.20
2024-02-03T08:41:06.691Z,1.27
2024-02-03T08:43:34.738Z,1.40
2024-02-03T08:46:02.824Z,1.40
2024-02-03T08:48:30.896Z,1.30
2024-02-03T08:50:59.380Z,1.60
2024-02-03T08:53:27.525Z,1.60
2024-02-03T08:55:55.572Z,1.70
2024-02-03T08:58:25.036Z,1.50
2024-02-03T09:00:53.002Z,1.53
2024-02-03T09:03:20.923Z,1.50
2024-02-03T09:05:48.943Z,1.60
2024-02-03T09:08:16.864Z,1.60
2024-02-03T09:10:44.779Z,1.50
2024-02-03T09:13:12.840Z,1.60
2024-02-03T09:15:42.121Z,1.20
2024-02-03T09:18:10.292Z,1.40
2024-02-03T09:20:38.283Z,1.30
2024-02-03T09:23:06.230Z,1.30
2024-02-03T09:25:35.133Z,1.30
2024-02-03T09:28:03.637Z,1.40
2024-02-03T09:30:31.739Z,1.53
2024-02-03T09:33:01.231Z,1.20
2024-02-03T09:35:29.396Z,1.37
2024-02-03T09:37:59.850Z,1.40
2024-02-03T09:40:28.464Z,1.40
2024-02-03T09:42:57.530Z,1.30
2024-02-03T09:45:26.020Z,1.30
2024-02-03T09:47:54.105Z,1.10
2024-02-03T09:50:23.671Z,1.30
2024-02-03T09:52:57.964Z,1.30
2024-02-03T09:55:28.602Z,1.30
2024-02-03T09:57:57.114Z,1.40
2024-02-03T10:00:27.013Z,1.40
2024-02-03T10:02:54.921Z,1.30
2024-02-03T10:05:31.854Z,1.20
2024-02-03T10:08:05.991Z,1.30
2024-02-03T10:13:09.439Z,1.20
2024-02-03T10:15:38.163Z,1.30
2024-02-03T10:18:08.611Z,1.30
2024-02-03T10:20:38.524Z,1.10
2024-02-03T10:23:07.994Z,1.00
2024-02-03T10:25:36.892Z,1.30
2024-02-03T10:28:06.332Z,1.30
2024-02-03T10:30:38.149Z,1.10
2024-02-03T10:33:08.015Z,1.30
2024-02-03T10:35:38.778Z,1.30
2024-02-03T10:38:06.719Z,1.20
2024-02-03T10:40:36.020Z,1.20
2024-02-03T10:43:04.498Z,1.20
2024-02-03T10:45:34.261Z,1.20
2024-02-03T10:48:05.359Z,1.20
2024-02-03T10:50:37.922Z,1.20
2024-02-03T10:53:10.788Z,1.20
2024-02-03T10:55:42.299Z,1.20
2024-02-03T10:58:11.110Z,1.00
2024-02-03T11:00:39.224Z,1.30
2024-02-03T11:03:08.936Z,1.30
2024-02-03T11:05:41.255Z,1.20
2024-02-03T11:08:13.206Z,1.20
2024-02-03T11:10:43.956Z,1.27
2024-02-03T11:13:18.128Z,1.30
2024-02-03T11:15:47.518Z,1.10
2024-02-03T11:18:16.332Z,1.10
2024-02-03T11:20:45.137Z,1.20
2024-02-03T11:23:17.706Z,1.20
2024-02-03T11:25:46.857Z,1.20
2024-02-03T11:28:15.544Z,0.90
2024-02-03T11:30:43.774Z,1.30
2024-02-03T11:33:12.464Z,1.20
2024-02-03T11:35:43.224Z,1.00
2024-02-03T11:38:14.173Z,1.20
2024-02-03T11:40:49.921Z,1.20
2024-02-03T11:43:17.858Z,1.20
2024-02-03T11:45:50.255Z,1.10
2024-02-03T11:48:19.893Z,1.10
2024-02-03T11:50:48.331Z,1.20
2024-02-03T11:53:24.648Z,1.20
2024-02-03T11:55:55.343Z,1.10
2024-02-03T11:58:24.770Z,1.00
2024-02-03T12:01:03.111Z,1.00
2024-02-03T12:03:32.159Z,1.00
2024-02-03T12:06:00.624Z,1.00
2024-02-03T12:08:28.825Z,0.97
2024-02-03T12:10:58.586Z,1.00
2024-02-03T12:13:27.000Z,1.00
2024-02-03T12:15:58.100Z,1.00
2024-02-03T12:18:26.160Z,1.00
2024-02-03T12:20:55.512Z,1.00
2024-02-03T12:23:23.461Z,1.10
2024-02-03T12:25:51.998Z,0.80
2024-02-03T12:28:23.412Z,1.10
2024-02-03T12:30:56.922Z,1.07
2024-02-03T12:33:25.710Z,1.10
2024-02-03T12:35:54.193Z,1.00
2024-02-03T12:38:22.930Z,1.00
2024-02-03T12:40:51.008Z,1.20
2024-02-03T12:43:19.259Z,1.20
2024-02-03T12:45:49.678Z,1.23
2024-02-03T12:48:19.058Z,1.10
2024-02-03T12:50:47.399Z,1.00
2024-02-03T12:53:18.016Z,1.20
2024-02-03T12:55:46.074Z,0.90
2024-02-03T12:58:14.510Z,1.27
2024-02-03T13:00:42.856Z,1.20
2024-02-03T13:03:14.494Z,1.20
2024-02-03T13:05:42.868Z,1.20
2024-02-03T13:08:11.109Z,1.30
2024-02-03T13:10:40.338Z,1.30
2024-02-03T13:13:08.272Z,1.30
2024-02-03T13:15:36.244Z,1.17
2024-02-03T13:18:04.393Z,1.20
2024-02-03T13:20:33.627Z,1.23
2024-02-03T13:23:01.632Z,1.20
2024-02-03T13:25:29.501Z,1.30
2024-02-03T13:27:57.947Z,1.30
2024-02-03T13:30:26.208Z,1.20
2024-02-03T13:32:54.203Z,1.30
2024-02-03T13:35:22.141Z,1.10
2024-02-03T13:37:51.440Z,1.00
2024-02-03T13:40:19.466Z,1.30
2024-02-03T13:42:54.001Z,1.40
2024-02-03T13:45:22.543Z,1.30
2024-02-03T13:47:51.710Z,1.30
2024-02-03T13:50:20.475Z,1.40
2024-02-03T13:52:48.584Z,1.40
2024-02-03T13:55:18.269Z,1.30
2024-02-03T13:57:48.012Z,1.40
2024-02-03T14:00:17.667Z,1.30
2024-02-03T14:02:45.678Z,1.30
2024-02-03T14:05:13.642Z,1.10
2024-02-03T14:07:41.576Z,1.20
2024-02-03T14:10:10.206Z,1.30
2024-02-03T14:12:39.474Z,1.30
2024-02-03T14:15:08.371Z,1.30
2024-02-03T14:17:36.363Z,1.20
2024-02-03T14:20:08.202Z,1.10
2024-02-03T14:22:38.762Z,1.40
2024-02-03T14:25:07.158Z,1.30
2024-02-03T14:27:36.135Z,1.40
2024-02-03T14:30:07.076Z,1.00
2024-02-03T14:32:38.188Z,1.10
2024-02-03T14:35:07.108Z,1.20
2024-02-03T14:37:36.092Z,1.30
2024-02-03T14:40:06.043Z,1.30
2024-02-03T14:42:34.472Z,1.33
2024-02-03T14:45:02.751Z,1.30
2024-02-03T14:47:32.449Z,1.30
2024-02-03T14:50:00.945Z,1.00
2024-02-03T14:52:29.609Z,1.30
2024-02-03T14:54:57.881Z,1.40
2024-02-03T14:57:26.276Z,1.30
2024-02-03T14:59:54.554Z,1.30
2024-02-03T15:02:22.922Z,1.20
2024-02-03T15:04:52.627Z,1.40
2024-02-03T15:07:20.880Z,1.20
2024-02-03T15:09:49.178Z,1.40
2024-02-03T15:12:17.599Z,1.30
2024-02-03T15:14:45.943Z,1.40
2024-02-03T15:17:16.671Z,1.40
2024-02-03T15:19:45.141Z,1.10
2024-02-03T15:22:14.911Z,1.30
2024-02-03T15:24:43.251Z,1.30
2024-02-03T15:27:11.510Z,1.00
2024-02-03T15:29:40.766Z,1.30
2024-02-03T15:32:09.191Z,1.20
2024-02-03T15:34:37.723Z,1.40
2024-02-03T15:37:06.334Z,1.30
2024-02-03T15:39:36.130Z,1.20
2024-02-03T15:42:04.726Z,1.30
2024-02-03T15:44:41.247Z,1.40
2024-02-03T15:47:14.484Z,1.40
2024-02-03T15:49:43.629Z,1.20
2024-02-03T15:52:12.291Z,1.37
2024-02-03T15:54:42.627Z,1.40
2024-02-03T15:57:12.564Z,1.10
2024-02-03T15:59:41.662Z,1.10
2024-02-03T16:02:10.895Z,1.20
2024-02-03T16:04:39.368Z,1.10
2024-02-03T16:07:07.830Z,1.40
2024-02-03T16:09:36.332Z,1.30
2024-02-03T16:12:06.319Z,1.30
2024-02-03T16:14:34.852Z,1.40
2024-02-03T16:17:03.541Z,1.30
2024-02-03T16:19:32.156Z,1.30
2024-02-03T16:22:03.808Z,1.40
2024-02-03T16:24:34.359Z,1.30
2024-02-03T16:27:04.514Z,1.10
2024-02-03T16:29:34.613Z,1.20
2024-02-03T16:32:03.081Z,1.20
2024-02-03T16:34:32.079Z,1.10
2024-02-03T16:37:00.615Z,1.20
2024-02-03T16:39:30.449Z,1.10
2024-02-03T16:42:00.595Z,1.40
2024-02-03T16:44:28.871Z,1.40
2024-02-03T16:46:58.475Z,1.30
2024-02-03T16:49:27.084Z,1.10
2024-02-03T16:51:55.521Z,1.60
2024-02-03T16:54:26.333Z,1.40
2024-02-03T16:56:54.665Z,1.20
2024-02-03T16:59:22.946Z,1.40
2024-02-03T17:01:51.303Z,1.10
2024-02-03T17:04:21.216Z,1.30
2024-02-03T17:06:50.362Z,1.40
2024-02-03T17:09:19.330Z,1.50
2024-02-03T17:11:47.616Z,1.40
2024-02-03T17:14:16.258Z,1.40
2024-02-03T17:16:44.769Z,1.40
2024-02-03T17:19:13.148Z,1.10
2024-02-03T17:21:43.671Z,1.43
2024-02-03T17:24:13.529Z,1.40
2024-02-03T17:26:41.719Z,1.20
2024-02-03T17:29:09.935Z,1.50
2024-02-03T17:31:38.124Z,1.30
2024-02-03T17:34:06.515Z,1.50
2024-02-03T17:36:34.992Z,1.40
2024-02-03T17:39:04.726Z,1.37
2024-02-03T17:41:33.109Z,1.43
2024-02-03T17:44:01.372Z,1.60
2024-02-03T17:46:29.727Z,1.40
2024-02-03T17:48:58.458Z,1.50
2024-02-03T17:51:26.986Z,1.50
2024-02-03T17:53:55.236Z,1.30
2024-02-03T17:56:24.773Z,1.50
2024-02-03T17:58:53.250Z,1.50
2024-02-03T18:01:21.712Z,1.20
2024-02-03T18:03:50.225Z,1.50
2024-02-03T18:06:18.720Z,1.30
2024-02-03T18:08:48.834Z,1.13
2024-02-03T18:11:17.106Z,1.30
2024-02-03T18:13:48.896Z,1.40
2024-02-03T18:16:20.212Z,1.40
2024-02-03T18:18:48.638Z,1.10
2024-02-03T18:21:18.062Z,1.40
2024-02-03T18:23:46.738Z,1.50
2024-02-03T18:26:14.950Z,1.30
2024-02-03T18:28:43.177Z,1.40
2024-02-03T18:31:12.706Z,1.30
2024-02-03T18:33:43.767Z,1.40
2024-02-03T18:36:12.255Z,1.53
2024-02-03T18:38:40.665Z,1.50
2024-02-03T18:41:08.931Z,1.47
2024-02-03T18:43:37.146Z,1.20
2024-02-03T18:46:05.635Z,1.40
2024-02-03T18:48:35.590Z,1.40
2024-02-03T18:51:04.301Z,1.50
2024-02-03T18:53:33.559Z,1.40
2024-02-03T18:56:02.051Z,1.20
2024-02-03T18:58:30.456Z,1.30
2024-02-03T19:00:58.872Z,1.40
2024-02-03T19:03:27.382Z,1.17
2024-02-03T19:05:57.282Z,1.50
2024-02-03T19:08:28.120Z,1.10
2024-02-03T19:10:56.407Z,1.20
2024-02-03T19:13:24.920Z,1.40
2024-02-03T19:15:53.262Z,1.50
2024-02-03T19:18:21.818Z,1.40
2024-02-03T19:20:50.749Z,1.10
2024-02-03T19:23:21.281Z,1.40
2024-02-03T19:25:52.914Z,1.30
2024-02-03T19:28:22.623Z,1.40
2024-02-03T19:30:51.163Z,1.40
2024-02-03T19:33:22.430Z,1.20
2024-02-03T19:35:51.462Z,1.20
2024-02-03T19:38:21.409Z,1.50
2024-02-03T19:40:50.485Z,1.20
2024-02-03T19:43:19.150Z,1.30
2024-02-03T19:45:47.435Z,1.60
2024-02-03T19:48:15.918Z,1.50
2024-02-03T19:50:44.400Z,1.50
2024-02-03T19:53:12.748Z,1.40
2024-02-03T19:55:42.486Z,1.50
2024-02-03T19:58:11.378Z,1.50
2024-02-03T20:00:40.348Z,1.40
2024-02-03T20:03:09.752Z,1.60
2024-02-03T20:05:38.381Z,1.43
2024-02-03T20:08:07.229Z,1.50
2024-02-03T20:10:35.793Z,1.40
2024-02-03T20:13:05.822Z,1.40
2024-02-03T20:15:34.200Z,1.40
2024-02-03T20:18:02.986Z,1.17
2024-02-03T20:20:31.725Z,1.60
2024-02-03T20:23:00.317Z,1.20
2024-02-03T20:25:28.764Z,1.50
2024-02-03T20:27:58.980Z,1.40
2024-02-03T20:30:28.296Z,1.20
2024-02-03T20:32:56.724Z,1.40
2024-02-03T20:35:31.221Z,1.40
2024-02-03T20:37:59.662Z,1.30
2024-02-03T20:40:27.743Z,1.30
2024-02-03T20:42:55.733Z,1.50
2024-02-03T20:45:23.970Z,1.20
2024-02-03T20:47:53.353Z,1.50
2024-02-03T20:50:21.453Z,1.40
2024-02-03T20:52:50.291Z,1.50
2024-02-03T20:55:18.384Z,1.40
2024-02-03T20:57:46.342Z,1.50
2024-02-03T21:00:15.069Z,1.10
2024-02-03T21:02:42.986Z,1.43
2024-02-03T21:05:12.484Z,1.10
2024-02-03T21:07:41.081Z,1.40
2024-02-03T21:10:11.568Z,1.20
2024-02-03T21:12:42.698Z,1.40
2024-02-03T21:15:11.248Z,1.40
2024-02-03T21:17:39.486Z,1.40
2024-02-03T21:20:08.641Z,1.40
2024-02-03T21:22:38.130Z,1.20
2024-02-03T21:25:09.237Z,1.10
2024-02-03T21:27:41.969Z,1.40
2024-02-03T21:30:11.775Z,1.40
2024-02-03T21:32:39.873Z,1.40
2024-02-03T21:35:08.178Z,1.40
2024-02-03T21:37:37.414Z,1.40
2024-02-03T21:40:06.614Z,1.30
2024-02-03T21:42:34.678Z,1.40
2024-02-03T21:45:02.680Z,1.50
2024-02-03T21:47:31.214Z,1.20
2024-02-03T21:49:59.253Z,1.40
2024-02-03T21:52:27.882Z,1.30
2024-02-03T21:54:57.379Z,1.20
2024-02-03T21:57:25.642Z,1.40
2024-02-03T21:59:53.564Z,1.30
2024-02-03T22:02:21.382Z,1.10
2024-02-03T22:04:49.477Z,1.30
2024-02-03T22:07:18.698Z,1.47
2024-02-03T22:09:46.656Z,1.20
2024-02-03T22:12:15.930Z,1.30
2024-02-03T22:14:43.804Z,1.40
2024-02-03T22:17:12.027Z,1.50
2024-02-03T22:19:40.143Z,1.20
2024-02-03T22:22:08.329Z,1.30
2024-02-03T22:24:39.180Z,1.30
2024-02-03T22:27:07.425Z,1.57
2024-02-03T22:29:36.626Z,1.20
2024-02-03T22:32:04.645Z,1.40
2024-02-03T22:34:32.826Z,1.20
2024-02-03T22:37:01.061Z,1.20
2024-02-03T22:39:29.185Z,1.40
2024-02-03T22:41:58.369Z,1.30
2024-02-03T22:44:26.399Z,1.40
2024-02-03T22:46:55.890Z,1.30
2024-02-03T22:49:25.075Z,1.50
2024-02-03T22:51:53.307Z,1.60
2024-02-03T22:54:21.248Z,1.37
2024-02-03T22:56:49.245Z,1.10
2024-02-03T22:59:17.613Z,1.40
2024-02-03T23:01:45.694Z,1.20
2024-02-03T23:04:15.898Z,1.30
2024-02-03T23:06:43.994Z,1.40
2024-02-03T23:09:15.424Z,1.30
2024-02-03T23:11:43.575Z,1.50
2024-02-03T23:14:11.514Z,1.20
2024-02-03T23:16:39.382Z,1.40
2024-02-03T23:19:07.559Z,1.30
2024-02-03T23:21:37.957Z,1.40
2024-02-03T23:24:06.325Z,1.20
2024-02-03T23:26:34.607Z,1.40
2024-02-03T23:29:02.918Z,1.30
2024-02-03T23:31:31.357Z,1.20
2024-02-03T23:34:00.431Z,1.33
2024-02-03T23:36:28.583Z,1.40
2024-02-03T23:38:58.355Z,1.30
2024-02-03T23:41:26.697Z,1.47
2024-02-03T23:43:54.816Z,1.10
2024-02-03T23:46:24.349Z,1.30
2024-02-03T23:48:52.412Z,1.40
2024-02-03T23:51:21.031Z,1.60
2024-02-03T23:53:49.041Z,1.50
2024-02-03T23:56:18.485Z,1.40
2024-02-03T23:58:46.821Z,1.60
